Time;durP1;ratioP1;P1;durP2;ratioP2;P2;SDS_P1;SDS_P2;PMS_P1;PMS_P2;Temp;Humidity;BMP_temperature;BMP_pressure;BME280_temperature;BME280_humidity;BME280_pressure;Samples;Min_cycle;Max_cycle;Signal;HPM_P1;HPM_P2
2023/09/09 00:02:18;;;;;;;20.48;15.20;;;;;;;;;;5109331;27;20519;-57
2023/09/09 00:04:44;;;;;;;18.85;16.75;;;;;;;;;;5116433;27;20058;-54
2023/09/09 00:07:11;;;;;;;19.38;16.60;;;;;;;;;;5114944;27;20048;-57
2023/09/09 00:09:39;;;;;;;19.00;16.90;;;;;;;;;;5122054;27;20572;-58
2023/09/09 00:12:06;;;;;;;24.20;17.85;;;;;;;;;;5120216;27;20143;-53
2023/09/09 00:14:33;;;;;;;21.48;17.05;;;;;;;;;;5111180;27;20063;-56
2023/09/09 00:16:59;;;;;;;18.70;16.80;;;;;;;;;;5120139;27;20532;-57
2023/09/09 00:19:27;;;;;;;23.50;17.73;;;;;;;;;;5121841;27;20143;-55
2023/09/09 00:21:55;;;;;;;18.80;16.80;;;;;;;;;;5122760;27;20055;-54
2023/09/09 00:24:21;;;;;;;19.77;17.55;;;;;;;;;;5112612;27;20056;-57
2023/09/09 00:26:48;;;;;;;21.20;18.95;;;;;;;;;;5112785;27;20063;-57
2023/09/09 00:29:14;;;;;;;22.63;19.15;;;;;;;;;;5119569;27;20048;-57
2023/09/09 00:31:40;;;;;;;23.90;19.95;;;;;;;;;;5122340;27;20056;-57
2023/09/09 00:34:07;;;;;;;29.13;22.00;;;;;;;;;;5126216;27;20047;-57
2023/09/09 00:36:34;;;;;;;24.38;21.63;;;;;;;;;;5114496;27;20059;-54
2023/09/09 00:39:03;;;;;;;26.75;21.30;;;;;;;;;;5124594;27;20119;-53
2023/09/09 00:41:29;;;;;;;24.52;21.92;;;;;;;;;;5115992;27;20087;-57
2023/09/09 00:43:56;;;;;;;24.58;20.92;;;;;;;;;;5122337;27;20462;-55
2023/09/09 00:46:24;;;;;;;29.63;23.00;;;;;;;;;;5123712;27;20095;-53
2023/09/09 00:48:50;;;;;;;27.35;24.27;;;;;;;;;;5102570;27;20101;-55
2023/09/09 00:51:16;;;;;;;32.25;25.85;;;;;;;;;;5121602;27;20059;-56
2023/09/09 00:53:43;;;;;;;31.83;27.63;;;;;;;;;;5123051;27;20821;-57
2023/09/09 00:56:09;;;;;;;30.17;25.55;;;;;;;;;;5123097;27;20105;-57
2023/09/09 00:58:36;;;;;;;32.55;27.05;;;;;;;;;;5120859;27;20058;-56
2023/09/09 01:01:03;;;;;;;38.78;29.40;;;;;;;;;;5113995;27;20870;-57
2023/09/09 01:03:30;;;;;;;35.35;30.40;;;;;;;;;;5122026;27;20048;-57
2023/09/09 01:05:57;;;;;;;33.42;29.35;;;;;;;;;;5122530;27;20642;-57
2023/09/09 01:08:28;;;;;;;36.63;30.10;;;;;;;;;;5119342;27;20051;-53
2023/09/09 01:10:55;;;;;;;35.60;29.88;;;;;;;;;;5113174;27;20551;-55
2023/09/09 01:13:21;;;;;;;37.25;30.80;;;;;;;;;;5112565;27;20060;-56
2023/09/09 01:15:48;;;;;;;36.95;31.45;;;;;;;;;;5118492;27;20047;-55
2023/09/09 01:18:17;;;;;;;35.75;31.20;;;;;;;;;;5122994;27;20581;-56
2023/09/09 01:20:49;;;;;;;38.03;30.85;;;;;;;;;;5121055;27;20058;-56
2023/09/09 01:23:15;;;;;;;39.20;32.45;;;;;;;;;;5119587;27;20142;-56
2023/09/09 01:25:41;;;;;;;39.70;33.05;;;;;;;;;;5124700;27;20136;-55
2023/09/09 01:28:09;;;;;;;40.03;32.88;;;;;;;;;;5117483;27;20697;-53
2023/09/09 01:30:35;;;;;;;42.58;34.72;;;;;;;;;;5123140;27;20505;-54
2023/09/09 01:33:02;;;;;;;43.03;33.85;;;;;;;;;;5123801;27;20151;-56
2023/09/09 01:35:28;;;;;;;39.03;32.90;;;;;;;;;;5128569;27;20126;-54
2023/09/09 01:37:55;;;;;;;40.97;33.85;;;;;;;;;;5123012;27;20253;-51
2023/09/09 01:40:21;;;;;;;40.80;33.97;;;;;;;;;;5128457;27;20051;-55
2023/09/09 01:42:49;;;;;;;38.80;34.17;;;;;;;;;;5121855;27;20047;-56
2023/09/09 01:45:16;;;;;;;41.10;33.60;;;;;;;;;;5123871;27;20579;-56
2023/09/09 01:47:43;;;;;;;44.13;35.10;;;;;;;;;;5117223;27;20122;-57
2023/09/09 01:50:09;;;;;;;41.63;34.72;;;;;;;;;;5134941;27;20520;-53
2023/09/09 01:52:36;;;;;;;39.40;33.03;;;;;;;;;;5122416;27;20078;-55
2023/09/09 01:55:02;;;;;;;47.45;35.55;;;;;;;;;;5122295;27;20695;-57
2023/09/09 01:57:29;;;;;;;44.08;35.40;;;;;;;;;;5121130;27;20600;-55
2023/09/09 01:59:57;;;;;;;59.47;41.08;;;;;;;;;;5130102;27;20062;-56
2023/09/09 02:02:23;;;;;;;43.38;37.22;;;;;;;;;;5125267;27;20620;-56
2023/09/09 02:04:50;;;;;;;48.00;37.38;;;;;;;;;;5110211;27;20048;-57
2023/09/09 02:07:16;;;;;;;56.50;42.13;;;;;;;;;;5125362;27;20047;-56
2023/09/09 02:09:42;;;;;;;56.97;39.97;;;;;;;;;;5124029;27;20056;-55
2023/09/09 02:12:09;;;;;;;52.42;43.17;;;;;;;;;;5124987;27;20148;-54
2023/09/09 02:14:35;;;;;;;57.47;43.40;;;;;;;;;;5123932;27;20052;-57
2023/09/09 02:17:03;;;;;;;53.58;42.58;;;;;;;;;;5126910;27;20138;-55
2023/09/09 02:19:31;;;;;;;58.60;46.65;;;;;;;;;;5124215;27;20920;-58
2023/09/09 02:21:57;;;;;;;67.68;48.15;;;;;;;;;;5125176;27;20143;-56
2023/09/09 02:24:24;;;;;;;65.35;48.17;;;;;;;;;;5120160;27;20059;-56
2023/09/09 02:26:50;;;;;;;68.78;53.15;;;;;;;;;;5125169;27;20122;-55
2023/09/09 02:29:17;;;;;;;82.63;58.72;;;;;;;;;;5122852;27;20055;-57
2023/09/09 02:31:43;;;;;;;75.28;57.25;;;;;;;;;;5119630;27;20047;-56
2023/09/09 02:34:10;;;;;;;71.53;53.72;;;;;;;;;;5106601;27;20052;-53
2023/09/09 02:36:36;;;;;;;78.32;55.83;;;;;;;;;;5123762;27;20546;-56
2023/09/09 02:39:02;;;;;;;80.40;59.60;;;;;;;;;;5124149;27;20131;-56
2023/09/09 02:41:29;;;;;;;92.18;62.60;;;;;;;;;;5122471;27;20505;-57
2023/09/09 02:43:55;;;;;;;92.15;66.25;;;;;;;;;;5117653;27;20048;-56
2023/09/09 02:46:22;;;;;;;92.63;65.65;;;;;;;;;;5123853;27;20674;-57
2023/09/09 02:48:49;;;;;;;107.03;72.57;;;;;;;;;;5124595;27;20052;-56
2023/09/09 02:51:15;;;;;;;108.55;73.40;;;;;;;;;;5123691;27;20051;-56
2023/09/09 02:53:42;;;;;;;105.80;73.43;;;;;;;;;;5123724;27;20056;-56
2023/09/09 02:56:08;;;;;;;98.97;67.95;;;;;;;;;;5127011;27;20439;-57
2023/09/09 02:58:35;;;;;;;107.95;71.55;;;;;;;;;;5124576;27;20100;-55
2023/09/09 03:01:03;;;;;;;109.03;74.18;;;;;;;;;;5121440;27;20052;-52
2023/09/09 03:03:31;;;;;;;113.05;74.65;;;;;;;;;;5123892;27;20498;-54
2023/09/09 03:05:59;;;;;;;112.43;76.22;;;;;;;;;;5123306;27;20583;-56
2023/09/09 03:08:25;;;;;;;102.90;70.22;;;;;;;;;;5124081;27;20559;-55
2023/09/09 03:10:55;;;;;;;108.90;72.47;;;;;;;;;;5121757;27;21268;-55
2023/09/09 03:13:21;;;;;;;109.05;73.88;;;;;;;;;;5122267;27;20543;-56
2023/09/09 03:15:47;;;;;;;110.35;73.28;;;;;;;;;;5120247;27;20490;-56
2023/09/09 03:18:14;;;;;;;106.15;73.75;;;;;;;;;;5119393;27;20079;-54
2023/09/09 03:20:40;;;;;;;109.90;72.70;;;;;;;;;;5123702;27;20055;-57
2023/09/09 03:23:07;;;;;;;111.53;73.85;;;;;;;;;;5122007;27;20055;-57
2023/09/09 03:25:33;;;;;;;109.97;73.70;;;;;;;;;;5121398;27;20083;-57
2023/09/09 03:28:00;;;;;;;103.88;73.15;;;;;;;;;;5124124;27;20094;-56
2023/09/09 03:30:27;;;;;;;114.93;74.78;;;;;;;;;;5124314;27;20055;-57
2023/09/09 03:32:54;;;;;;;108.55;73.05;;;;;;;;;;5124261;27;20052;-56
2023/09/09 03:35:20;;;;;;;117.03;75.43;;;;;;;;;;5126199;27;20427;-54
2023/09/09 03:37:46;;;;;;;120.78;77.13;;;;;;;;;;5115837;27;20071;-55
2023/09/09 03:40:13;;;;;;;119.30;78.43;;;;;;;;;;5122311;27;21056;-57
2023/09/09 03:42:40;;;;;;;115.20;75.40;;;;;;;;;;5122151;27;20058;-56
2023/09/09 03:45:06;;;;;;;113.60;76.22;;;;;;;;;;5126458;27;20043;-55
2023/09/09 03:47:33;;;;;;;114.82;74.80;;;;;;;;;;5114904;27;20050;-56
2023/09/09 03:49:59;;;;;;;119.55;77.28;;;;;;;;;;5119914;27;20646;-57
2023/09/09 03:52:27;;;;;;;123.32;77.93;;;;;;;;;;5117880;27;20047;-54
2023/09/09 03:54:54;;;;;;;115.47;77.40;;;;;;;;;;5121826;27;20055;-57
2023/09/09 03:57:20;;;;;;;116.63;76.82;;;;;;;;;;5122910;27;20051;-56
2023/09/09 03:59:47;;;;;;;124.40;78.97;;;;;;;;;;5125672;27;20048;-56
2023/09/09 04:02:13;;;;;;;122.30;79.30;;;;;;;;;;5124294;27;20085;-56
2023/09/09 04:04:40;;;;;;;126.00;80.13;;;;;;;;;;5120585;27;20147;-57
2023/09/09 04:07:06;;;;;;;120.32;76.60;;;;;;;;;;5123363;27;20052;-56
2023/09/09 04:09:40;;;;;;;113.90;77.47;;;;;;;;;;5126770;27;20055;-56
2023/09/09 04:12:08;;;;;;;122.30;79.20;;;;;;;;;;5120984;27;20054;-55
2023/09/09 04:14:39;;;;;;;122.78;77.85;;;;;;;;;;5104733;27;20063;-54
2023/09/09 04:17:06;;;;;;;126.18;78.78;;;;;;;;;;5122772;27;20062;-56
2023/09/09 04:19:32;;;;;;;130.45;81.25;;;;;;;;;;5123940;27;20301;-54
2023/09/09 04:21:59;;;;;;;126.18;83.00;;;;;;;;;;5105987;27;20114;-56
2023/09/09 04:24:25;;;;;;;134.10;84.35;;;;;;;;;;5118717;27;20132;-56
2023/09/09 04:26:52;;;;;;;125.85;80.25;;;;;;;;;;5122178;27;20139;-56
2023/09/09 04:29:19;;;;;;;128.15;79.72;;;;;;;;;;5122431;27;20058;-56
2023/09/09 04:31:46;;;;;;;125.15;78.95;;;;;;;;;;5121842;27;20575;-56
2023/09/09 04:34:13;;;;;;;124.47;79.68;;;;;;;;;;5115925;27;20047;-57
2023/09/09 04:36:40;;;;;;;120.20;78.65;;;;;;;;;;5125965;27;20146;-56
2023/09/09 04:39:07;;;;;;;124.57;79.00;;;;;;;;;;5104769;27;20371;-57
2023/09/09 04:41:33;;;;;;;121.45;78.00;;;;;;;;;;5123041;27;20054;-55
2023/09/09 04:44:00;;;;;;;122.93;79.95;;;;;;;;;;5123258;27;20048;-56
2023/09/09 04:46:27;;;;;;;128.93;80.47;;;;;;;;;;5122605;27;20048;-56
2023/09/09 04:48:53;;;;;;;122.63;76.82;;;;;;;;;;5121740;27;20051;-57
2023/09/09 04:51:20;;;;;;;126.90;78.95;;;;;;;;;;5123414;27;20056;-57
2023/09/09 04:53:46;;;;;;;124.15;80.60;;;;;;;;;;5104427;27;20083;-50
2023/09/09 04:56:13;;;;;;;139.65;82.93;;;;;;;;;;5123038;27;20047;-50
2023/09/09 04:58:39;;;;;;;128.77;80.50;;;;;;;;;;5118941;27;20083;-50
2023/09/09 05:01:05;;;;;;;127.70;79.10;;;;;;;;;;5126870;27;20051;-48
2023/09/09 05:03:32;;;;;;;119.20;76.60;;;;;;;;;;5127048;27;20058;-53
2023/09/09 05:05:59;;;;;;;128.18;78.65;;;;;;;;;;5128948;27;20052;-47
2023/09/09 05:08:26;;;;;;;119.07;78.35;;;;;;;;;;5129212;27;21004;-49
2023/09/09 05:10:52;;;;;;;122.88;75.57;;;;;;;;;;5124152;27;20927;-54
2023/09/09 05:13:18;;;;;;;126.65;78.43;;;;;;;;;;5125960;27;20101;-48
2023/09/09 05:15:45;;;;;;;146.75;79.82;;;;;;;;;;5124647;27;20494;-48
2023/09/09 05:18:11;;;;;;;125.85;78.70;;;;;;;;;;5126055;27;20143;-50
2023/09/09 05:20:38;;;;;;;126.13;77.50;;;;;;;;;;5126170;27;20143;-50
2023/09/09 05:23:04;;;;;;;132.98;79.30;;;;;;;;;;5125489;27;20056;-49
2023/09/09 05:25:32;;;;;;;125.70;76.07;;;;;;;;;;5126201;27;20052;-48
2023/09/09 05:27:58;;;;;;;133.75;77.70;;;;;;;;;;5126115;27;20143;-49
2023/09/09 05:30:24;;;;;;;142.80;76.03;;;;;;;;;;5126211;27;20043;-53
2023/09/09 05:32:51;;;;;;;123.65;74.43;;;;;;;;;;5125447;27;20429;-49
2023/09/09 05:35:18;;;;;;;121.95;75.10;;;;;;;;;;5130784;27;20055;-53
2023/09/09 05:37:45;;;;;;;162.00;72.57;;;;;;;;;;5122521;27;20136;-52
2023/09/09 05:40:11;;;;;;;121.18;73.07;;;;;;;;;;5125420;27;20492;-52
2023/09/09 05:42:38;;;;;;;126.60;71.72;;;;;;;;;;5127699;27;20128;-53
2023/09/09 05:45:06;;;;;;;108.15;71.40;;;;;;;;;;5126167;27;20044;-48
2023/09/09 05:47:32;;;;;;;114.60;72.93;;;;;;;;;;5125144;27;20498;-53
2023/09/09 05:49:59;;;;;;;107.65;70.03;;;;;;;;;;5119696;27;20143;-53
2023/09/09 05:52:25;;;;;;;134.98;72.20;;;;;;;;;;5123920;27;20075;-54
2023/09/09 05:54:52;;;;;;;102.82;67.13;;;;;;;;;;5124706;27;20058;-52
2023/09/09 05:57:18;;;;;;;108.53;67.40;;;;;;;;;;5125448;27;20060;-48
2023/09/09 05:59:45;;;;;;;112.25;67.63;;;;;;;;;;5123752;27;20052;-49
2023/09/09 06:02:11;;;;;;;101.93;64.93;;;;;;;;;;5102712;27;20056;-47
2023/09/09 06:04:38;;;;;;;131.73;63.40;;;;;;;;;;5127310;27;20130;-51
2023/09/09 06:07:05;;;;;;;98.00;64.50;;;;;;;;;;5126003;27;20062;-51
2023/09/09 06:09:32;;;;;;;104.68;63.70;;;;;;;;;;5126654;27;20143;-48
2023/09/09 06:11:58;;;;;;;98.43;63.60;;;;;;;;;;5125975;27;20506;-49
2023/09/09 06:14:25;;;;;;;96.18;62.28;;;;;;;;;;5116725;27;20067;-49
2023/09/09 06:16:51;;;;;;;107.15;60.78;;;;;;;;;;5127278;27;20055;-49
2023/09/09 06:19:18;;;;;;;109.40;58.97;;;;;;;;;;5119961;27;20544;-51
2023/09/09 06:21:44;;;;;;;80.03;54.38;;;;;;;;;;5124928;27;20522;-51
2023/09/09 06:24:12;;;;;;;84.65;54.25;;;;;;;;;;5119574;27;20048;-49
2023/09/09 06:26:39;;;;;;;90.30;55.38;;;;;;;;;;5130265;27;20081;-53
2023/09/09 06:29:05;;;;;;;90.03;55.03;;;;;;;;;;5114895;27;21106;-47
2023/09/09 06:31:32;;;;;;;85.65;53.70;;;;;;;;;;5123945;27;20136;-49
2023/09/09 06:33:59;;;;;;;84.00;54.17;;;;;;;;;;5125352;27;20067;-51
2023/09/09 06:36:25;;;;;;;86.38;55.22;;;;;;;;;;5130445;27;20612;-51
2023/09/09 06:38:52;;;;;;;81.03;52.50;;;;;;;;;;5127609;27;20547;-52
2023/09/09 06:41:18;;;;;;;83.85;53.97;;;;;;;;;;5124467;27;20145;-48
2023/09/09 06:43:45;;;;;;;79.93;50.00;;;;;;;;;;5115248;27;20055;-54
2023/09/09 06:46:11;;;;;;;82.57;52.45;;;;;;;;;;5132215;27;20498;-50
2023/09/09 06:48:37;;;;;;;84.93;53.63;;;;;;;;;;5121847;27;20112;-54
2023/09/09 06:51:04;;;;;;;82.53;53.47;;;;;;;;;;5124662;27;20567;-50
2023/09/09 06:53:31;;;;;;;81.22;53.50;;;;;;;;;;5123661;27;20052;-50
2023/09/09 06:55:57;;;;;;;90.60;56.65;;;;;;;;;;5106378;27;20098;-51
2023/09/09 06:58:23;;;;;;;89.25;56.10;;;;;;;;;;5122216;27;20143;-49
2023/09/09 07:00:53;;;;;;;91.90;56.38;;;;;;;;;;5117580;27;20666;-50
2023/09/09 07:03:20;;;;;;;88.72;56.83;;;;;;;;;;5120534;27;20052;-55
2023/09/09 07:05:47;;;;;;;92.78;58.42;;;;;;;;;;5121200;27;20059;-54
2023/09/09 07:08:13;;;;;;;93.90;58.08;;;;;;;;;;5126805;27;20051;-54
2023/09/09 07:10:47;;;;;;;99.97;60.28;;;;;;;;;;5125019;27;20536;-52
2023/09/09 07:13:14;;;;;;;94.93;59.60;;;;;;;;;;5120107;27;20599;-53
2023/09/09 07:15:40;;;;;;;96.40;60.65;;;;;;;;;;5124921;27;20147;-55
2023/09/09 07:18:07;;;;;;;95.55;59.50;;;;;;;;;;5122095;27;20050;-53
2023/09/09 07:20:33;;;;;;;94.45;63.05;;;;;;;;;;5120687;27;20052;-53
2023/09/09 07:23:01;;;;;;;98.57;63.85;;;;;;;;;;5124735;27;20063;-53
2023/09/09 07:25:27;;;;;;;100.18;63.65;;;;;;;;;;5123680;27;20579;-52
2023/09/09 07:27:54;;;;;;;109.85;69.30;;;;;;;;;;5124983;27;20048;-55
2023/09/09 07:30:20;;;;;;;107.03;66.93;;;;;;;;;;5122119;27;20533;-56
2023/09/09 07:32:46;;;;;;;101.75;69.20;;;;;;;;;;5123686;27;20109;-55
2023/09/09 07:35:13;;;;;;;106.05;68.95;;;;;;;;;;5124244;27;20611;-56
2023/09/09 07:37:39;;;;;;;108.13;72.13;;;;;;;;;;5125682;27;20048;-53
2023/09/09 07:40:06;;;;;;;105.28;69.53;;;;;;;;;;5122664;27;20052;-54
2023/09/09 07:42:32;;;;;;;98.00;67.65;;;;;;;;;;5124014;27;20108;-54
2023/09/09 07:44:59;;;;;;;104.05;70.18;;;;;;;;;;5123945;27;20047;-59
2023/09/09 07:47:25;;;;;;;103.05;69.10;;;;;;;;;;5124225;27;20074;-58
2023/09/09 07:49:52;;;;;;;91.55;66.47;;;;;;;;;;5124013;27;20047;-57
2023/09/09 07:52:18;;;;;;;94.07;66.00;;;;;;;;;;5123616;27;20494;-59
2023/09/09 07:54:45;;;;;;;95.20;67.30;;;;;;;;;;5104446;27;20058;-58
2023/09/09 07:57:11;;;;;;;86.85;61.15;;;;;;;;;;5124807;27;20109;-58
2023/09/09 07:59:38;;;;;;;91.85;62.40;;;;;;;;;;5123845;27;20124;-58
2023/09/09 08:02:05;;;;;;;86.85;63.30;;;;;;;;;;5123747;27;20074;-58
2023/09/09 08:04:32;;;;;;;83.63;60.50;;;;;;;;;;5123320;27;20116;-59
2023/09/09 08:06:59;;;;;;;79.93;57.63;;;;;;;;;;5117778;27;20371;-58
2023/09/09 08:09:26;;;;;;;77.03;56.17;;;;;;;;;;5124623;27;20052;-55
2023/09/09 08:11:52;;;;;;;75.72;52.65;;;;;;;;;;5123318;27;20062;-58
2023/09/09 08:14:19;;;;;;;67.57;50.05;;;;;;;;;;5122736;27;20055;-59
2023/09/09 08:16:45;;;;;;;63.17;48.60;;;;;;;;;;5123664;27;20087;-58
2023/09/09 08:19:12;;;;;;;69.05;49.13;;;;;;;;;;5124288;27;20063;-58
2023/09/09 08:21:38;;;;;;;64.45;48.85;;;;;;;;;;5123436;27;20477;-57
2023/09/09 08:24:05;;;;;;;66.18;48.30;;;;;;;;;;5123171;27;20047;-57
2023/09/09 08:26:32;;;;;;;63.53;48.00;;;;;;;;;;5124051;27;20104;-58
2023/09/09 08:28:58;;;;;;;65.80;46.15;;;;;;;;;;5122972;27;20101;-57
2023/09/09 08:31:25;;;;;;;62.20;45.22;;;;;;;;;;5122038;27;20113;-56
2023/09/09 08:33:52;;;;;;;55.22;43.25;;;;;;;;;;5122427;27;20587;-59
2023/09/09 08:36:18;;;;;;;61.00;46.05;;;;;;;;;;5122928;27;20062;-56
2023/09/09 08:38:44;;;;;;;68.55;49.42;;;;;;;;;;5123237;27;20054;-54
2023/09/09 08:41:16;;;;;;;59.95;43.50;;;;;;;;;;5122966;27;20437;-58
2023/09/09 08:43:51;;;;;;;50.80;41.03;;;;;;;;;;5123012;27;20048;-57
2023/09/09 08:46:18;;;;;;;;;;;;;;;;;;5123396;27;20112;-58
2023/09/09 08:48:44;;;;;;;51.45;38.33;;;;;;;;;;5122763;27;46806;-57
2023/09/09 08:51:16;;;;;;;56.38;41.00;;;;;;;;;;5105490;27;20059;-56
2023/09/09 08:53:45;;;;;;;53.42;41.83;;;;;;;;;;5122172;27;20051;-59
2023/09/09 08:56:13;;;;;;;51.35;39.97;;;;;;;;;;5122551;27;20506;-58
2023/09/09 08:58:42;;;;;;;49.67;35.45;;;;;;;;;;5121179;27;20051;-57
2023/09/09 09:01:10;;;;;;;40.45;31.83;;;;;;;;;;5122993;27;20127;-58
2023/09/09 09:03:37;;;;;;;45.45;33.78;;;;;;;;;;5123744;27;20131;-58
2023/09/09 09:06:05;;;;;;;45.28;35.50;;;;;;;;;;5104966;27;20051;-57
2023/09/09 09:08:33;;;;;;;38.58;31.85;;;;;;;;;;5123195;27;20509;-58
2023/09/09 09:11:01;;;;;;;44.10;34.25;;;;;;;;;;5121214;27;20513;-58
2023/09/09 09:13:30;;;;;;;46.45;33.15;;;;;;;;;;5122580;27;20105;-58
2023/09/09 09:15:57;;;;;;;46.85;35.15;;;;;;;;;;5104030;27;20101;-58
2023/09/09 09:18:23;;;;;;;41.55;33.50;;;;;;;;;;5122561;27;20052;-57
2023/09/09 09:20:52;;;;;;;37.78;30.17;;;;;;;;;;5122851;27;20048;-59
2023/09/09 09:23:18;;;;;;;38.83;30.35;;;;;;;;;;5122857;27;20058;-58
2023/09/09 09:25:46;;;;;;;37.00;29.67;;;;;;;;;;5122987;27;20135;-58
2023/09/09 09:28:13;;;;;;;37.85;28.63;;;;;;;;;;5122807;27;20051;-59
2023/09/09 09:30:40;;;;;;;39.00;28.98;;;;;;;;;;5122131;27;20082;-59
2023/09/09 09:33:06;;;;;;;35.72;27.40;;;;;;;;;;5122207;27;20133;-58
2023/09/09 09:35:34;;;;;;;31.85;27.42;;;;;;;;;;5123770;27;20054;-58
2023/09/09 09:38:02;;;;;;;28.52;24.20;;;;;;;;;;5123026;27;20117;-58
2023/09/09 09:40:29;;;;;;;29.70;24.23;;;;;;;;;;5122292;27;20080;-58
2023/09/09 09:42:56;;;;;;;30.23;24.83;;;;;;;;;;5122547;27;20052;-57
2023/09/09 09:45:27;;;;;;;35.35;24.77;;;;;;;;;;5126070;27;20139;-59
2023/09/09 09:47:54;;;;;;;26.27;22.65;;;;;;;;;;5125583;27;20056;-59
2023/09/09 09:50:30;;;;;;;25.92;21.63;;;;;;;;;;5125768;27;20101;-59
2023/09/09 09:53:00;;;;;;;27.67;22.83;;;;;;;;;;5125252;27;20143;-59
2023/09/09 09:55:27;;;;;;;28.65;23.60;;;;;;;;;;5126878;27;20056;-57
2023/09/09 09:57:55;;;;;;;31.38;22.55;;;;;;;;;;5125298;27;20105;-59
2023/09/09 10:00:22;;;;;;;25.77;21.83;;;;;;;;;;5125069;27;20133;-59
2023/09/09 10:02:50;;;;;;;23.38;20.02;;;;;;;;;;5122818;27;20043;-59
2023/09/09 10:05:19;;;;;;;28.15;20.25;;;;;;;;;;5124397;27;20083;-42
2023/09/09 10:07:49;;;;;;;22.42;19.48;;;;;;;;;;5130002;27;20404;-60
2023/09/09 10:10:17;;;;;;;25.83;20.45;;;;;;;;;;5125133;27;20146;-60
2023/09/09 10:12:50;;;;;;;22.25;19.77;;;;;;;;;;5126473;27;20157;-60
2023/09/09 10:15:18;;;;;;;25.50;17.45;;;;;;;;;;5121209;27;20484;-60
2023/09/09 10:17:45;;;;;;;19.20;16.35;;;;;;;;;;5123209;27;20092;-58
2023/09/09 10:20:13;;;;;;;22.67;16.98;;;;;;;;;;5125724;27;20051;-60
2023/09/09 10:22:40;;;;;;;18.05;16.15;;;;;;;;;;5106674;27;20623;-59
2023/09/09 10:25:10;;;;;;;19.67;17.58;;;;;;;;;;5128615;27;20047;-58
2023/09/09 10:27:38;;;;;;;25.60;20.05;;;;;;;;;;5125263;27;20063;-59
2023/09/09 10:30:05;;;;;;;20.25;16.20;;;;;;;;;;5124891;27;20425;-60
2023/09/09 10:32:34;;;;;;;16.15;14.45;;;;;;;;;;5125437;27;20075;-60
2023/09/09 10:35:03;;;;;;;16.98;12.43;;;;;;;;;;5124651;27;20074;-59
2023/09/09 10:37:30;;;;;;;26.55;13.73;;;;;;;;;;5130219;27;20048;-60
2023/09/09 10:39:57;;;;;;;13.88;9.82;;;;;;;;;;5125182;27;20105;-59
2023/09/09 10:42:23;;;;;;;10.85;9.70;;;;;;;;;;5124590;27;20510;-60
2023/09/09 10:44:53;;;;;;;14.85;11.20;;;;;;;;;;5125807;27;20051;-60
2023/09/09 10:47:19;;;;;;;18.23;15.45;;;;;;;;;;5123978;27;20094;-60
2023/09/09 10:49:46;;;;;;;18.60;14.52;;;;;;;;;;5125635;27;20044;-59
2023/09/09 10:52:29;;;;;;;19.70;15.85;;;;;;;;;;5130925;27;20048;-58
2023/09/09 10:55:12;;;;;;;15.57;12.13;;;;;;;;;;5124315;27;20485;-59
2023/09/09 10:57:38;;;;;;;10.82;8.93;;;;;;;;;;5123895;27;20129;-59
2023/09/09 11:00:06;;;;;;;13.10;10.65;;;;;;;;;;5124224;27;20533;-59
2023/09/09 11:02:43;;;;;;;14.57;11.95;;;;;;;;;;5127656;27;20567;-59
2023/09/09 11:05:11;;;;;;;11.15;9.32;;;;;;;;;;5124496;27;20058;-59
2023/09/09 11:07:46;;;;;;;10.70;8.95;;;;;;;;;;5124693;27;20055;-59
2023/09/09 11:10:16;;;;;;;11.63;10.43;;;;;;;;;;5115047;27;20060;-60
2023/09/09 11:12:56;;;;;;;10.70;8.73;;;;;;;;;;5128533;27;20052;-60
2023/09/09 11:15:26;;;;;;;13.32;10.43;;;;;;;;;;5124038;27;21106;-58
2023/09/09 11:17:52;;;;;;;11.43;9.43;;;;;;;;;;5125559;27;20920;-59
2023/09/09 11:20:20;;;;;;;11.68;10.13;;;;;;;;;;5125543;27;20138;-60
2023/09/09 11:22:47;;;;;;;11.32;10.13;;;;;;;;;;5124498;27;20521;-59
2023/09/09 11:25:14;;;;;;;11.65;10.45;;;;;;;;;;5124468;27;20059;-59
2023/09/09 11:27:41;;;;;;;13.82;10.10;;;;;;;;;;5125314;27;20139;-57
2023/09/09 11:30:08;;;;;;;12.60;9.85;;;;;;;;;;5129475;27;20051;-59
2023/09/09 11:32:34;;;;;;;16.83;11.85;;;;;;;;;;5128993;27;20502;-58
2023/09/09 11:35:02;;;;;;;11.13;9.40;;;;;;;;;;5124744;27;20051;-60
2023/09/09 11:37:28;;;;;;;17.02;10.40;;;;;;;;;;5124089;27;20955;-58
2023/09/09 11:39:56;;;;;;;14.05;11.13;;;;;;;;;;5128132;27;20051;-58
2023/09/09 11:42:22;;;;;;;13.18;9.80;;;;;;;;;;5124034;27;20051;-61
2023/09/09 11:44:49;;;;;;;13.05;9.48;;;;;;;;;;5124475;27;20101;-59
2023/09/09 11:47:16;;;;;;;11.18;9.98;;;;;;;;;;5124549;27;20082;-60
2023/09/09 11:49:44;;;;;;;13.48;9.88;;;;;;;;;;5124576;27;20529;-59
2023/09/09 11:52:13;;;;;;;18.48;11.90;;;;;;;;;;5124093;27;20062;-59
2023/09/09 11:54:46;;;;;;;11.90;10.32;;;;;;;;;;5123267;27;20062;-59
2023/09/09 11:57:12;;;;;;;20.02;10.80;;;;;;;;;;5124227;27;20056;-59
2023/09/09 11:59:46;;;;;;;9.88;8.90;;;;;;;;;;5129603;27;20101;-60
2023/09/09 12:02:18;;;;;;;11.52;9.75;;;;;;;;;;5124202;27;20058;-60
2023/09/09 12:04:55;;;;;;;11.65;9.98;;;;;;;;;;5123509;27;20052;-59
2023/09/09 12:07:23;;;;;;;12.88;9.10;;;;;;;;;;5125010;27;20545;-60
2023/09/09 12:09:50;;;;;;;9.63;8.63;;;;;;;;;;5127542;27;20545;-60
2023/09/09 12:12:16;;;;;;;10.52;9.00;;;;;;;;;;5125753;27;20095;-60
2023/09/09 12:14:43;;;;;;;9.27;8.38;;;;;;;;;;5122185;27;20572;-59
2023/09/09 12:17:09;;;;;;;8.82;7.88;;;;;;;;;;5103797;27;20093;-59
2023/09/09 12:19:36;;;;;;;11.75;8.77;;;;;;;;;;5124683;27;20054;-60
2023/09/09 12:22:02;;;;;;;11.98;9.70;;;;;;;;;;5124372;27;20498;-59
2023/09/09 12:24:40;;;;;;;9.35;7.78;;;;;;;;;;5122019;27;20055;-60
2023/09/09 12:27:06;;;;;;;12.02;8.98;;;;;;;;;;5123583;27;20101;-58
2023/09/09 12:29:43;;;;;;;12.55;9.40;;;;;;;;;;5125369;27;20055;-60
2023/09/09 12:32:09;;;;;;;10.00;8.48;;;;;;;;;;5122857;27;20059;-60
2023/09/09 12:34:36;;;;;;;10.13;8.23;;;;;;;;;;5124219;27;20058;-60
2023/09/09 12:37:02;;;;;;;11.60;9.38;;;;;;;;;;5123867;27;20051;-59
2023/09/09 12:39:30;;;;;;;8.48;7.53;;;;;;;;;;5130222;27;20056;-59
2023/09/09 12:41:57;;;;;;;8.63;7.28;;;;;;;;;;5123065;27;20055;-58
2023/09/09 12:44:23;;;;;;;10.23;6.95;;;;;;;;;;5122649;27;20120;-58
2023/09/09 12:46:53;;;;;;;11.00;7.28;;;;;;;;;;5116746;27;20059;-59
2023/09/09 12:49:19;;;;;;;9.45;6.68;;;;;;;;;;5128418;27;20060;-58
2023/09/09 12:51:46;;;;;;;10.45;7.30;;;;;;;;;;5122591;27;20051;-56
2023/09/09 12:54:12;;;;;;;8.52;7.70;;;;;;;;;;5123263;27;20564;-60
2023/09/09 12:56:39;;;;;;;9.45;7.38;;;;;;;;;;5124434;27;20054;-60
2023/09/09 12:59:06;;;;;;;7.97;6.43;;;;;;;;;;5105379;27;20180;-59
2023/09/09 13:01:32;;;;;;;10.23;8.35;;;;;;;;;;5123276;27;20414;-58
2023/09/09 13:03:59;;;;;;;9.50;7.18;;;;;;;;;;5115122;27;20596;-60
2023/09/09 13:06:26;;;;;;;7.90;7.10;;;;;;;;;;5127345;27;20051;-60
2023/09/09 13:08:52;;;;;;;7.80;7.07;;;;;;;;;;5125891;27;20565;-57
2023/09/09 13:11:19;;;;;;;8.27;7.38;;;;;;;;;;5107728;27;20376;-60
2023/09/09 13:13:45;;;;;;;11.10;7.20;;;;;;;;;;5116397;27;20781;-59
2023/09/09 13:16:12;;;;;;;11.13;6.93;;;;;;;;;;5122424;27;20126;-59
2023/09/09 13:18:39;;;;;;;8.05;7.25;;;;;;;;;;5128078;27;20155;-59
2023/09/09 13:21:05;;;;;;;12.15;6.45;;;;;;;;;;5106585;27;20645;-58
2023/09/09 13:23:31;;;;;;;11.10;6.90;;;;;;;;;;5126474;27;20764;-59
2023/09/09 13:25:58;;;;;;;8.15;6.93;;;;;;;;;;5124622;27;20083;-59
2023/09/09 13:28:24;;;;;;;7.18;6.13;;;;;;;;;;5124021;27;20626;-57
2023/09/09 13:30:51;;;;;;;8.07;6.38;;;;;;;;;;5126933;27;20421;-59
2023/09/09 13:33:19;;;;;;;7.30;6.60;;;;;;;;;;5126145;27;20052;-60
2023/09/09 13:35:45;;;;;;;9.57;6.88;;;;;;;;;;5128705;27;20105;-59
2023/09/09 13:38:12;;;;;;;8.52;5.97;;;;;;;;;;5128543;27;20056;-59
2023/09/09 13:40:38;;;;;;;7.57;6.32;;;;;;;;;;5125832;27;20579;-60
2023/09/09 13:43:05;;;;;;;13.25;5.88;;;;;;;;;;5126427;27;20463;-59
2023/09/09 13:45:31;;;;;;;6.65;5.28;;;;;;;;;;5126180;27;20498;-59
2023/09/09 13:47:58;;;;;;;9.40;6.57;;;;;;;;;;5118420;27;20059;-56
2023/09/09 13:50:25;;;;;;;6.82;5.60;;;;;;;;;;5121418;27;20052;-60
2023/09/09 13:52:51;;;;;;;10.98;6.63;;;;;;;;;;5125576;27;20048;-58
2023/09/09 13:55:18;;;;;;;8.63;5.80;;;;;;;;;;5124898;27;20174;-59
2023/09/09 13:57:44;;;;;;;6.88;5.70;;;;;;;;;;5124455;27;20066;-58
2023/09/09 14:00:11;;;;;;;9.88;6.00;;;;;;;;;;5124634;27;20419;-60
2023/09/09 14:02:37;;;;;;;10.98;6.32;;;;;;;;;;5123260;27;20043;-60
2023/09/09 14:05:05;;;;;;;11.02;6.18;;;;;;;;;;5124724;27;20087;-59
2023/09/09 14:07:31;;;;;;;6.55;5.95;;;;;;;;;;5126139;27;20453;-59
2023/09/09 14:09:58;;;;;;;8.45;5.80;;;;;;;;;;5123952;27;20048;-60
2023/09/09 14:12:24;;;;;;;9.23;6.97;;;;;;;;;;5128454;27;20578;-60
2023/09/09 14:14:50;;;;;;;14.20;5.97;;;;;;;;;;5122527;27;20064;-59
2023/09/09 14:17:17;;;;;;;8.90;6.13;;;;;;;;;;5128460;27;20044;-60
2023/09/09 14:19:43;;;;;;;8.00;5.60;;;;;;;;;;5130118;27;20506;-59